Terminal Aerodrome Forecast
Issued by NWS Cleveland, OH

Home | Current Version | Previous Version | Graphics & Text | Print | Product List | Glossary On
Versions: 1 2 3 4 5 6 7 8 9 10 11 12 13 14 15 16 17 18 19
572
FTUS41 KCLE 091722
TAFERI
TAF
KERI 091722Z 0918/1018 26010KT P6SM OVC025
     FM092200 24012G16KT 5SM -SN OVC012
     FM100000 24012KT 3SM -SN OVC012
     FM100800 26012KT 2SM -SN OVC008
     FM101400 26010KT 5SM -SN OVC012=

USA.gov is the U.S. government's official web portal to all federal, state and local government web resources and services.